createdAt,value
2019-03-09T00:01:30.970Z,926.76
2019-03-09T00:03:31.552Z,926.84
2019-03-09T00:16:30.809Z,927.19
2019-03-09T00:17:30.789Z,927.20
2019-03-09T00:18:30.795Z,927.19
2019-03-09T00:19:31.180Z,927.21
2019-03-09T00:20:30.769Z,927.24
2019-03-09T01:06:30.266Z,927.44
2019-03-09T01:07:30.312Z,927.45
2019-03-09T01:08:30.305Z,927.43
2019-03-09T01:09:30.253Z,927.47
2019-03-09T01:27:30.058Z,927.55
2019-03-09T01:28:30.091Z,927.51
2019-03-09T01:29:30.033Z,927.57
2019-03-09T01:30:30.012Z,927.58
2019-03-09T01:31:30.003Z,927.56
2019-03-09T01:32:30.494Z,927.59
2019-03-09T01:33:29.990Z,927.63
2019-03-09T01:34:29.980Z,927.63
2019-03-09T01:35:29.967Z,927.59
2019-03-09T01:36:29.954Z,927.63
2019-03-09T01:37:29.989Z,927.63
2019-03-09T01:38:29.984Z,927.59
2019-03-09T01:39:29.925Z,927.61
2019-03-09T01:40:29.907Z,927.62
2019-03-09T01:41:29.901Z,927.57
2019-03-09T01:42:29.925Z,927.60
2019-03-09T01:43:29.933Z,927.58
2019-03-09T01:44:29.865Z,927.60
2019-03-09T01:45:29.853Z,927.57
2019-03-09T01:46:29.852Z,927.58
2019-03-09T01:47:29.892Z,927.56
2019-03-09T01:48:29.822Z,927.54
2019-03-09T01:49:30.259Z,927.53
2019-03-09T01:50:29.809Z,927.54
2019-03-09T01:51:29.793Z,927.50
2019-03-09T01:52:29.788Z,927.50
2019-03-09T01:53:36.487Z,927.47
2019-03-09T01:54:31.805Z,927.50
2019-03-09T01:55:29.805Z,927.48
2019-03-09T01:56:29.739Z,927.52
2019-03-09T01:57:29.728Z,927.50
2019-03-09T01:58:29.776Z,927.57
2019-03-09T01:59:29.702Z,927.51
2019-03-09T02:00:29.740Z,927.57
2019-03-09T02:01:29.684Z,927.54
2019-03-09T02:02:29.670Z,927.49
2019-03-09T02:03:29.672Z,927.54
2019-03-09T02:04:29.654Z,927.61
2019-03-09T02:05:30.239Z,927.57
2019-03-09T02:06:29.629Z,927.50
2019-03-09T02:07:29.618Z,927.52
2019-03-09T02:08:29.607Z,927.50
2019-03-09T02:09:29.595Z,927.50
2019-03-09T02:10:29.632Z,927.48
2019-03-09T02:11:29.581Z,927.54
2019-03-09T02:12:29.563Z,927.49
2019-03-09T02:13:29.609Z,927.54
2019-03-09T02:14:29.544Z,927.55
2019-03-09T02:15:29.537Z,927.55
2019-03-09T02:16:29.527Z,927.59
2019-03-09T02:17:29.557Z,927.55
2019-03-09T02:18:29.497Z,927.66
2019-03-09T02:19:29.491Z,927.61
2019-03-09T02:20:29.481Z,927.61
2019-03-09T02:21:29.471Z,927.57
2019-03-09T02:22:29.914Z,927.59
2019-03-09T02:23:29.444Z,927.61
2019-03-09T02:24:29.436Z,927.61
2019-03-09T02:25:29.427Z,927.64
2019-03-09T02:26:29.422Z,927.64
2019-03-09T02:27:29.402Z,927.64
2019-03-09T02:28:29.448Z,927.66
2019-03-09T02:29:29.381Z,927.58
2019-03-09T02:30:29.365Z,927.61
2019-03-09T02:31:29.360Z,927.62
2019-03-09T02:32:29.354Z,927.65
2019-03-09T02:33:29.388Z,927.69
2019-03-09T02:34:29.323Z,927.65
2019-03-09T02:35:29.367Z,927.68
2019-03-09T02:36:29.297Z,927.70
2019-03-09T02:37:29.302Z,927.68
2019-03-09T02:38:29.840Z,927.72
2019-03-09T02:39:29.275Z,927.68
2019-03-09T02:40:29.321Z,927.74
2019-03-09T02:41:29.244Z,927.75
2019-03-09T02:42:29.247Z,927.79
2019-03-09T02:43:29.241Z,927.78
2019-03-09T02:44:29.219Z,927.85
2019-03-09T02:45:29.257Z,927.84
2019-03-09T02:46:29.195Z,927.90
2019-03-09T02:47:29.182Z,927.91
2019-03-09T02:48:29.181Z,927.95
2019-03-09T02:49:29.169Z,927.89
2019-03-09T02:50:29.208Z,927.87
2019-03-09T02:51:29.161Z,927.86
2019-03-09T02:52:29.136Z,927.88
2019-03-09T02:53:29.125Z,927.96
2019-03-09T02:54:29.178Z,927.94
2019-03-09T02:55:29.155Z,927.96
2019-03-09T02:56:29.096Z,927.99
2019-03-09T02:57:29.094Z,928.04
2019-03-09T02:58:29.073Z,928.08
2019-03-09T02:59:29.065Z,928.05
2019-03-09T03:00:29.506Z,928.05
2019-03-09T03:01:29.043Z,928.01
2019-03-09T03:02:29.034Z,928.04
2019-03-09T03:03:29.023Z,928.03
2019-03-09T03:04:29.061Z,928.13
2019-03-09T03:05:29.007Z,928.13
2019-03-09T03:06:28.986Z,928.11
2019-03-09T03:07:28.980Z,928.15
2019-03-09T03:08:29.025Z,928.20
2019-03-09T03:09:28.969Z,928.18
2019-03-09T03:10:29.000Z,928.17
2019-03-09T03:11:28.939Z,928.20
2019-03-09T03:12:29.004Z,928.20
2019-03-09T03:13:28.972Z,928.19
2019-03-09T03:14:28.958Z,928.17
2019-03-09T03:15:28.911Z,928.24
2019-03-09T03:16:28.891Z,928.24
2019-03-09T03:17:28.874Z,928.26
2019-03-09T03:18:29.420Z,928.25
2019-03-09T03:19:28.851Z,928.25
2019-03-09T03:20:28.848Z,928.27
2019-03-09T03:21:28.830Z,928.29
2019-03-09T03:22:28.827Z,928.37
2019-03-09T03:23:28.857Z,928.35
2019-03-09T03:24:28.796Z,928.36
2019-03-09T03:25:28.838Z,928.38
2019-03-09T03:26:28.774Z,928.42
2019-03-09T03:27:28.760Z,928.45
2019-03-09T03:28:28.749Z,928.41
2019-03-09T03:29:28.751Z,928.48
2019-03-09T03:30:28.795Z,928.44
2019-03-09T03:31:28.725Z,928.47
2019-03-09T03:32:28.715Z,928.44
2019-03-09T03:33:28.722Z,928.44
2019-03-09T03:34:29.188Z,928.45
2019-03-09T03:35:28.686Z,928.41
2019-03-09T03:36:28.666Z,928.48
2019-03-09T03:37:28.654Z,928.46
2019-03-09T03:38:28.648Z,928.49
2019-03-09T03:39:28.687Z,928.52
2019-03-09T03:40:28.617Z,928.49
2019-03-09T03:41:28.615Z,928.55
2019-03-09T03:42:28.613Z,928.57
2019-03-09T03:43:28.585Z,928.57
2019-03-09T03:44:28.584Z,928.61
2019-03-09T03:45:28.626Z,928.60
2019-03-09T03:46:28.568Z,928.60
2019-03-09T03:47:28.551Z,928.59
2019-03-09T03:48:28.542Z,928.57
2019-03-09T03:49:28.534Z,928.59
2019-03-09T03:50:28.529Z,928.58
2019-03-09T03:51:28.923Z,928.60
2019-03-09T03:52:28.499Z,928.59
2019-03-09T03:53:28.490Z,928.67
2019-03-09T03:54:28.482Z,928.69
2019-03-09T03:55:28.522Z,928.52
2019-03-09T03:56:28.462Z,928.60
2019-03-09T03:57:28.490Z,928.64
2019-03-09T03:58:28.440Z,928.65
2019-03-09T03:59:28.423Z,928.64
2019-03-09T04:00:28.431Z,928.69
2019-03-09T04:01:28.404Z,928.63
2019-03-09T04:02:28.456Z,928.69
2019-03-09T04:03:28.389Z,928.72
2019-03-09T04:04:28.375Z,928.74
2019-03-09T04:05:28.369Z,928.80
2019-03-09T04:06:28.356Z,928.78
2019-03-09T04:07:28.788Z,928.81
2019-03-09T04:08:28.338Z,928.73
2019-03-09T04:09:28.331Z,928.76
2019-03-09T04:10:28.319Z,928.73
2019-03-09T04:11:28.298Z,928.73
2019-03-09T04:12:28.346Z,928.73
2019-03-09T04:13:28.274Z,928.78
2019-03-09T04:14:28.271Z,928.82
2019-03-09T04:15:28.269Z,928.84
2019-03-09T04:16:28.253Z,928.83
2019-03-09T04:17:28.290Z,928.86
2019-03-09T04:18:28.231Z,928.79
2019-03-09T04:19:28.219Z,928.79
2019-03-09T04:20:28.201Z,928.80
2019-03-09T04:21:28.195Z,928.77
2019-03-09T04:22:28.246Z,928.77
2019-03-09T04:23:28.578Z,928.80
2019-03-09T04:24:28.171Z,928.83
2019-03-09T04:25:28.159Z,928.81
2019-03-09T04:26:28.148Z,928.83
2019-03-09T04:27:28.186Z,928.82
2019-03-09T04:28:28.213Z,928.84
2019-03-09T04:29:28.115Z,928.90
2019-03-09T04:30:28.101Z,928.84
2019-03-09T04:31:28.159Z,928.83
2019-03-09T04:32:28.115Z,928.85
2019-03-09T04:33:28.075Z,928.85
2019-03-09T04:34:28.063Z,928.91
2019-03-09T04:35:28.109Z,928.87
2019-03-09T04:36:28.053Z,928.92
2019-03-09T04:37:28.029Z,928.86
2019-03-09T04:38:28.022Z,928.90
2019-03-09T04:39:28.455Z,928.88
2019-03-09T04:40:27.998Z,928.85
2019-03-09T04:41:28.045Z,928.90
2019-03-09T04:42:28.084Z,928.94
2019-03-09T04:43:27.970Z,928.97
2019-03-09T04:44:27.966Z,928.91
2019-03-09T04:45:27.944Z,928.92
2019-03-09T04:46:27.942Z,928.96
2019-03-09T04:47:27.973Z,928.95
2019-03-09T04:48:27.922Z,928.92
2019-03-09T04:49:27.911Z,928.91
2019-03-09T04:50:27.897Z,928.93
2019-03-09T04:51:27.889Z,928.90
2019-03-09T04:52:27.935Z,928.90
2019-03-09T04:53:27.858Z,928.93
2019-03-09T04:54:27.898Z,928.90
2019-03-09T04:55:27.854Z,928.88
2019-03-09T04:56:27.831Z,928.93
2019-03-09T04:57:28.226Z,928.87
2019-03-09T04:58:27.817Z,928.91
2019-03-09T04:59:28.002Z,928.95
2019-03-09T05:00:27.796Z,928.96
2019-03-09T05:01:27.788Z,928.94
2019-03-09T05:02:27.773Z,928.82
2019-03-09T05:03:27.765Z,928.92
2019-03-09T05:04:27.803Z,928.84
2019-03-09T05:05:27.799Z,928.94
2019-03-09T05:06:27.733Z,928.95
2019-03-09T05:07:28.024Z,928.92
2019-03-09T05:08:27.705Z,928.92
2019-03-09T05:09:27.703Z,928.94
2019-03-09T05:10:27.700Z,928.89
2019-03-09T05:11:27.681Z,928.80
2019-03-09T05:12:27.671Z,928.83
2019-03-09T05:13:27.909Z,928.85
2019-03-09T05:14:27.653Z,928.85
2019-03-09T05:15:27.638Z,928.90
2019-03-09T05:16:27.626Z,928.99
2019-03-09T05:17:27.620Z,929.01
2019-03-09T05:18:27.603Z,928.95
2019-03-09T05:19:27.698Z,928.94
2019-03-09T05:20:27.588Z,928.96
2019-03-09T05:21:27.572Z,928.86
2019-03-09T05:22:27.566Z,928.88
2019-03-09T05:23:27.561Z,928.93
2019-03-09T05:24:27.545Z,928.98
2019-03-09T05:25:27.635Z,929.02
2019-03-09T05:26:27.515Z,928.95
2019-03-09T05:27:27.556Z,928.80
2019-03-09T05:28:27.502Z,928.71
2019-03-09T05:29:27.491Z,928.98
2019-03-09T05:30:27.484Z,928.85
2019-03-09T05:31:27.771Z,928.88
2019-03-09T05:32:27.459Z,928.94
2019-03-09T05:33:27.446Z,929.00
2019-03-09T05:34:27.439Z,928.99
2019-03-09T05:35:27.435Z,928.97
2019-03-09T05:36:27.417Z,928.90
2019-03-09T05:37:27.512Z,928.97
2019-03-09T05:38:27.392Z,928.95
2019-03-09T05:39:27.378Z,928.82
2019-03-09T05:40:27.373Z,929.02
2019-03-09T05:41:27.371Z,928.90
2019-03-09T05:42:27.358Z,928.89
2019-03-09T05:43:27.449Z,928.87
2019-03-09T05:44:27.336Z,928.74
2019-03-09T05:45:27.321Z,928.89
2019-03-09T05:46:27.311Z,928.89
2019-03-09T05:47:27.301Z,928.86
2019-03-09T05:48:27.288Z,928.89
2019-03-09T05:49:27.632Z,928.81
2019-03-09T05:50:27.281Z,928.87
2019-03-09T05:51:27.264Z,928.76
2019-03-09T05:52:27.248Z,928.92
2019-03-09T05:53:27.242Z,928.95
2019-03-09T05:54:27.228Z,928.95
2019-03-09T05:55:27.368Z,928.91
2019-03-09T05:56:27.206Z,928.95
2019-03-09T05:57:27.219Z,928.81
2019-03-09T05:58:27.184Z,928.95
2019-03-09T05:59:27.181Z,928.78
2019-03-09T06:00:27.164Z,928.70
2019-03-09T06:01:27.257Z,928.74
2019-03-09T06:02:27.151Z,928.75
2019-03-09T06:03:27.126Z,928.75
2019-03-09T06:04:27.128Z,928.83
2019-03-09T06:05:27.106Z,928.92
2019-03-09T06:06:27.103Z,928.77
2019-03-09T06:07:27.353Z,928.79
2019-03-09T06:08:27.085Z,928.64
2019-03-09T06:09:27.075Z,928.87
2019-03-09T06:10:27.058Z,928.87
2019-03-09T06:11:27.050Z,928.76
2019-03-09T06:12:27.050Z,928.79
2019-03-09T06:13:27.126Z,928.90
2019-03-09T06:14:27.020Z,928.84
2019-03-09T06:15:27.009Z,928.62
2019-03-09T06:16:26.991Z,928.61
2019-03-09T06:17:26.987Z,928.59
2019-03-09T06:18:26.979Z,928.70
2019-03-09T06:19:27.117Z,928.72
2019-03-09T06:20:26.955Z,928.70
2019-03-09T06:21:26.942Z,928.60
2019-03-09T06:22:26.923Z,928.52
2019-03-09T06:23:26.925Z,928.49
2019-03-09T06:24:26.911Z,928.48
2019-03-09T06:25:27.146Z,928.45
2019-03-09T06:26:26.885Z,928.46
2019-03-09T06:27:26.879Z,928.47
2019-03-09T06:28:26.867Z,928.40
2019-03-09T06:29:26.861Z,928.48
2019-03-09T06:30:26.841Z,928.47
2019-03-09T06:31:26.933Z,928.46
2019-03-09T06:32:26.806Z,928.48
2019-03-09T06:33:26.728Z,928.41
2019-03-09T06:34:26.721Z,928.52
2019-03-09T06:35:26.706Z,928.58
2019-03-09T06:36:26.696Z,928.57
2019-03-09T06:53:26.948Z,928.29
2019-03-09T06:54:26.586Z,928.37
2019-03-09T06:55:26.574Z,928.44
2019-03-09T06:56:26.566Z,928.44
2019-03-09T06:57:26.553Z,928.44
2019-03-09T06:58:26.547Z,928.46
2019-03-09T06:59:26.642Z,928.34
2019-03-09T07:00:26.530Z,928.36
2019-03-09T07:01:26.512Z,928.31
2019-03-09T07:02:26.507Z,928.43
2019-03-09T07:03:26.492Z,928.31
2019-03-09T07:04:26.485Z,928.18
2019-03-09T07:05:26.639Z,928.31
2019-03-09T07:06:26.466Z,928.15
2019-03-09T07:07:26.452Z,928.17
2019-03-09T07:08:26.436Z,928.17
2019-03-09T07:09:26.429Z,928.21
2019-03-09T07:10:26.424Z,928.30
2019-03-09T07:11:26.913Z,928.24
2019-03-09T07:12:26.390Z,928.12
2019-03-09T07:13:26.397Z,928.24
2019-03-09T07:14:26.368Z,928.26
2019-03-09T07:15:26.364Z,928.19
2019-03-09T07:16:26.352Z,928.15
2019-03-09T07:17:26.451Z,928.07
2019-03-09T07:18:26.346Z,928.00
2019-03-09T07:19:26.340Z,928.05
2019-03-09T07:20:26.313Z,928.09
2019-03-09T07:21:26.300Z,928.09
2019-03-09T07:22:26.296Z,928.14
2019-03-09T07:23:26.385Z,928.17
2019-03-09T07:24:26.269Z,928.08
2019-03-09T07:25:26.265Z,928.00
2019-03-09T07:26:26.255Z,928.10
2019-03-09T07:27:26.238Z,928.07
2019-03-09T07:28:26.220Z,927.96
2019-03-09T07:29:26.464Z,928.03
2019-03-09T07:30:26.219Z,927.97
2019-03-09T07:31:26.196Z,927.89
2019-03-09T07:32:26.195Z,927.90
2019-03-09T07:33:26.180Z,927.92
2019-03-09T07:34:26.165Z,927.87
2019-03-09T07:35:26.265Z,927.84
2019-03-09T07:36:26.148Z,927.85
2019-03-09T07:37:26.135Z,927.78
2019-03-09T07:38:26.129Z,927.84
2019-03-09T07:39:26.118Z,927.79
2019-03-09T07:40:26.112Z,927.77
2019-03-09T07:41:26.194Z,927.81
2019-03-09T07:42:26.074Z,927.77
2019-03-09T07:43:26.068Z,927.73
2019-03-09T07:44:26.059Z,927.75
2019-03-09T07:45:26.051Z,927.67
2019-03-09T07:46:26.040Z,927.80
2019-03-09T07:47:26.429Z,927.76
2019-03-09T07:48:26.013Z,927.76
2019-03-09T07:49:26.003Z,927.60
2019-03-09T07:50:26.002Z,927.63
2019-03-09T07:51:25.990Z,927.75
2019-03-09T07:52:25.973Z,927.67
2019-03-09T07:53:26.077Z,927.64
2019-03-09T07:54:25.956Z,927.66
2019-03-09T07:55:25.949Z,927.65
2019-03-09T07:56:25.934Z,927.63
2019-03-09T07:57:25.932Z,927.66
2019-03-09T07:58:25.914Z,927.64
2019-03-09T07:59:25.998Z,927.60
2019-03-09T08:00:25.901Z,927.57
2019-03-09T08:01:25.884Z,927.61
2019-03-09T08:02:25.873Z,927.58
2019-03-09T08:03:25.867Z,927.67
2019-03-09T08:04:25.850Z,927.68
2019-03-09T08:05:26.103Z,927.72
2019-03-09T08:06:25.826Z,927.74
2019-03-09T08:07:25.818Z,927.76
2019-03-09T08:08:25.806Z,927.60
2019-03-09T08:09:25.805Z,927.50
2019-03-09T08:10:25.789Z,927.54
2019-03-09T08:11:25.882Z,927.57
2019-03-09T08:12:25.777Z,927.55
2019-03-09T08:13:25.755Z,927.45
2019-03-09T08:14:25.751Z,927.40
2019-03-09T08:15:25.740Z,927.35
2019-03-09T08:16:35.152Z,927.48
2019-03-09T08:17:50.633Z,927.43
2019-03-09T08:18:50.643Z,927.31
2019-03-09T08:19:50.617Z,927.51
2019-03-09T08:20:50.633Z,927.34
2019-03-09T08:21:50.597Z,927.37
2019-03-09T08:22:50.850Z,927.37
2019-03-09T08:23:50.565Z,927.32
2019-03-09T08:24:50.578Z,927.35
2019-03-09T08:25:50.545Z,927.41
2019-03-09T08:26:50.542Z,927.42
2019-03-09T08:27:50.528Z,927.51
2019-03-09T08:28:50.619Z,927.60
2019-03-09T08:29:50.504Z,927.54
2019-03-09T08:30:50.493Z,927.46
2019-03-09T08:31:50.483Z,927.47
2019-03-09T08:32:50.496Z,927.52
2019-03-09T08:33:50.481Z,927.48
2019-03-09T08:34:50.556Z,927.49
2019-03-09T08:35:50.449Z,927.52
2019-03-09T08:36:50.428Z,927.45
2019-03-09T08:37:50.436Z,927.44
2019-03-09T08:38:50.439Z,927.45
2019-03-09T08:39:50.404Z,927.42
2019-03-09T08:40:50.535Z,927.37
2019-03-09T08:41:50.370Z,927.40
2019-03-09T08:42:50.380Z,927.38
2019-03-09T08:43:50.359Z,927.41
2019-03-09T08:44:50.344Z,927.41
2019-03-09T08:45:50.583Z,927.36
2019-03-09T08:46:50.329Z,927.26
2019-03-09T08:47:52.495Z,927.33
2019-03-09T08:48:50.309Z,927.29
2019-03-09T08:49:50.292Z,927.35
2019-03-09T08:50:50.276Z,927.28
2019-03-09T08:51:50.439Z,927.30
2019-03-09T08:52:50.297Z,927.25
2019-03-09T08:53:50.263Z,927.25
2019-03-09T08:54:50.239Z,927.30
2019-03-09T08:55:50.227Z,927.26
2019-03-09T08:56:50.252Z,927.24
2019-03-09T08:57:50.339Z,927.26
2019-03-09T08:58:50.196Z,927.27
2019-03-09T08:59:50.196Z,927.17
2019-03-09T09:00:50.169Z,927.24
2019-03-09T09:01:50.167Z,927.24
2019-03-09T09:02:50.156Z,927.19
2019-03-09T09:03:50.443Z,927.21
2019-03-09T09:04:50.133Z,927.17
2019-03-09T09:05:50.129Z,927.18
2019-03-09T09:06:50.105Z,927.14
2019-03-09T09:07:50.092Z,927.14
2019-03-09T09:08:50.083Z,927.16
2019-03-09T09:09:50.179Z,927.11
2019-03-09T09:10:50.070Z,927.09
2019-03-09T09:11:50.058Z,927.06
2019-03-09T09:12:50.045Z,927.14
2019-03-09T09:13:50.025Z,927.06
2019-03-09T09:14:50.023Z,927.06
2019-03-09T09:15:50.152Z,927.08
2019-03-09T09:16:49.999Z,927.04
2019-03-09T09:17:50.006Z,927.08
2019-03-09T09:18:49.985Z,927.02
2019-03-09T09:19:49.969Z,927.04
2019-03-09T09:20:49.960Z,927.07
2019-03-09T09:21:50.301Z,927.05
2019-03-09T09:22:49.941Z,926.98
2019-03-09T09:23:49.927Z,926.95
2019-03-09T09:24:49.914Z,926.98
2019-03-09T09:25:49.906Z,926.92
2019-03-09T09:26:49.895Z,926.89
2019-03-09T09:27:51.879Z,927.05
2019-03-09T09:28:49.875Z,927.05
2019-03-09T09:29:49.875Z,926.94
2019-03-09T09:30:49.850Z,927.00
2019-03-09T09:31:49.840Z,927.08
2019-03-09T09:32:49.833Z,927.02
2019-03-09T09:33:49.925Z,926.99
2019-03-09T09:34:49.815Z,927.05
2019-03-09T09:35:49.797Z,926.92
2019-03-09T09:36:49.792Z,927.04
2019-03-09T09:37:49.770Z,926.87
2019-03-09T09:38:49.768Z,926.96
2019-03-09T09:39:50.054Z,926.96
2019-03-09T09:40:49.749Z,926.92
2019-03-09T09:41:49.745Z,926.85
2019-03-09T09:42:49.728Z,926.91
2019-03-09T09:43:49.720Z,926.87
2019-03-09T09:44:49.707Z,926.86
2019-03-09T09:45:49.793Z,926.84
2019-03-09T09:46:49.677Z,926.88
2019-03-09T09:47:49.683Z,926.88
2019-03-09T09:48:49.665Z,926.85
2019-03-09T09:49:49.651Z,926.80
2019-03-09T09:50:49.648Z,926.82
2019-03-09T09:51:49.739Z,926.72
2019-03-09T09:52:49.625Z,926.74
2019-03-09T09:53:49.612Z,926.80
2019-03-09T09:54:49.596Z,926.73
2019-03-09T09:55:49.581Z,926.67
2019-03-09T09:56:49.574Z,926.74
2019-03-09T09:57:49.869Z,926.66
2019-03-09T09:58:49.556Z,926.65
2019-03-09T09:59:49.550Z,926.70
2019-03-09T10:00:49.534Z,926.71
2019-03-09T10:01:49.520Z,926.73
2019-03-09T10:02:49.513Z,926.77
2019-03-09T10:03:49.651Z,926.71
2019-03-09T10:04:49.496Z,926.71
2019-03-09T10:05:49.474Z,926.63
2019-03-09T10:06:49.477Z,926.64
2019-03-09T10:07:49.460Z,926.66
2019-03-09T10:08:49.448Z,926.65
2019-03-09T10:09:49.545Z,926.60
2019-03-09T10:10:49.434Z,926.63
2019-03-09T10:11:49.413Z,926.59
2019-03-09T10:12:49.410Z,926.58
2019-03-09T10:13:49.395Z,926.48
2019-03-09T10:14:49.644Z,926.49
2019-03-09T10:15:49.436Z,926.45
2019-03-09T10:16:49.366Z,926.46
2019-03-09T10:17:49.353Z,926.43
2019-03-09T10:18:49.341Z,926.42
2019-03-09T10:19:49.328Z,926.30
2019-03-09T10:20:49.471Z,926.36
2019-03-09T10:21:49.305Z,926.33
2019-03-09T10:22:49.290Z,926.36
2019-03-09T10:23:49.287Z,926.45
2019-03-09T10:24:49.281Z,926.39
2019-03-09T10:25:49.268Z,926.41
2019-03-09T10:26:49.406Z,926.43
2019-03-09T10:27:49.279Z,926.44
2019-03-09T10:28:49.232Z,926.54
2019-03-09T10:29:49.222Z,926.48
2019-03-09T10:30:49.209Z,926.40
2019-03-09T10:31:49.206Z,926.44
2019-03-09T10:32:49.545Z,926.41
2019-03-09T10:33:49.181Z,926.41
2019-03-09T10:34:49.167Z,926.39
2019-03-09T10:35:49.166Z,926.35
2019-03-09T10:36:49.148Z,926.33
2019-03-09T10:37:49.148Z,926.34
2019-03-09T10:38:49.281Z,926.34
2019-03-09T10:39:49.115Z,926.34
2019-03-09T10:40:49.102Z,926.38
2019-03-09T10:41:49.099Z,926.33
2019-03-09T10:42:49.084Z,926.34
2019-03-09T10:43:49.064Z,926.36
2019-03-09T10:44:49.908Z,926.37
2019-03-09T10:45:49.059Z,926.39
2019-03-09T10:46:49.046Z,926.39
2019-03-09T10:47:49.038Z,926.37
2019-03-09T10:48:49.017Z,926.36
2019-03-09T10:49:49.011Z,926.39
2019-03-09T10:50:49.354Z,926.40
2019-03-09T10:51:48.987Z,926.44
2019-03-09T10:52:48.981Z,926.38
2019-03-09T10:53:48.973Z,926.45
2019-03-09T10:54:48.957Z,926.42
2019-03-09T10:55:48.941Z,926.45
2019-03-09T10:56:49.038Z,926.44
2019-03-09T10:57:48.922Z,926.46
2019-03-09T10:58:48.910Z,926.49
2019-03-09T10:59:48.893Z,926.47
2019-03-09T11:00:48.901Z,926.50
2019-03-09T11:01:48.881Z,926.45
2019-03-09T11:02:49.025Z,926.48
2019-03-09T11:03:48.870Z,926.45
2019-03-09T11:04:48.861Z,926.46
2019-03-09T11:05:48.837Z,926.48
2019-03-09T11:06:48.859Z,926.46
2019-03-09T11:07:48.816Z,926.52
2019-03-09T11:08:49.156Z,926.55
2019-03-09T11:09:48.810Z,926.52
2019-03-09T11:10:48.785Z,926.57
2019-03-09T11:11:48.789Z,926.58
2019-03-09T11:12:48.770Z,926.60
2019-03-09T11:13:52.122Z,926.60
2019-03-09T11:14:48.854Z,926.64
2019-03-09T11:15:48.748Z,926.61
2019-03-09T11:16:48.722Z,926.59
2019-03-09T11:17:48.715Z,926.65
2019-03-09T11:18:48.708Z,926.64
2019-03-09T11:19:48.700Z,926.69
2019-03-09T11:20:48.787Z,926.70
2019-03-09T11:21:48.672Z,926.72
2019-03-09T11:22:48.667Z,926.68
2019-03-09T11:23:48.788Z,926.71
2019-03-09T11:24:48.645Z,926.70
2019-03-09T11:25:48.636Z,926.70
2019-03-09T11:26:48.921Z,926.71
2019-03-09T11:27:48.608Z,926.67
2019-03-09T11:28:48.615Z,926.64
2019-03-09T11:29:48.588Z,926.61
2019-03-09T11:30:48.584Z,926.61
2019-03-09T11:31:48.562Z,926.62
2019-03-09T11:32:48.662Z,926.65
2019-03-09T11:33:48.552Z,926.61
2019-03-09T11:34:48.542Z,926.59
2019-03-09T11:35:48.527Z,926.63
2019-03-09T11:36:48.516Z,926.62
2019-03-09T11:37:48.500Z,926.61
2019-03-09T11:38:48.597Z,926.62
2019-03-09T11:39:48.484Z,926.60
2019-03-09T11:40:56.858Z,926.59
2019-03-09T11:42:13.277Z,926.64
2019-03-09T11:43:13.269Z,926.58
2019-03-09T11:44:13.510Z,926.58
2019-03-09T11:45:13.243Z,926.56
2019-03-09T11:46:13.237Z,926.52
2019-03-09T11:47:13.231Z,926.52
2019-03-09T11:48:13.222Z,926.50
2019-03-09T11:49:13.207Z,926.50
2019-03-09T11:50:13.305Z,926.51
2019-03-09T11:51:13.186Z,926.48
2019-03-09T11:52:20.023Z,926.46
2019-03-09T11:53:15.165Z,926.47
2019-03-09T11:54:13.151Z,926.42
2019-03-09T11:55:13.143Z,926.41
2019-03-09T11:56:13.292Z,926.37
2019-03-09T11:57:13.120Z,926.33
2019-03-09T11:58:13.109Z,926.33
2019-03-09T11:59:13.115Z,926.35
2019-03-09T12:00:13.094Z,926.32
2019-03-09T12:01:13.088Z,926.32
2019-03-09T12:02:13.371Z,926.33
2019-03-09T12:03:13.069Z,926.32
2019-03-09T12:04:13.054Z,926.22
2019-03-09T12:05:13.043Z,926.24
2019-03-09T12:06:13.029Z,926.27
2019-03-09T12:07:13.022Z,926.22
2019-03-09T12:08:13.103Z,926.14
2019-03-09T12:09:13.004Z,926.16
2019-03-09T12:10:12.992Z,926.14
2019-03-09T12:11:12.982Z,926.15
2019-03-09T12:12:12.971Z,926.12
2019-03-09T12:13:12.954Z,926.12
2019-03-09T12:14:13.052Z,926.04
2019-03-09T12:15:12.941Z,926.08
2019-03-09T12:16:12.936Z,926.06
2019-03-09T12:17:13.066Z,926.07
2019-03-09T12:18:12.901Z,926.00
2019-03-09T12:19:12.893Z,925.98
2019-03-09T12:20:13.200Z,926.00
2019-03-09T12:21:12.881Z,925.92
2019-03-09T12:22:12.870Z,925.97
2019-03-09T12:23:12.858Z,925.94
2019-03-09T12:24:16.738Z,925.93
2019-03-09T12:25:14.931Z,926.00
2019-03-09T12:26:12.826Z,925.98
2019-03-09T12:27:12.810Z,926.03
2019-03-09T12:28:12.800Z,925.94
2019-03-09T12:29:12.794Z,926.01
2019-03-09T12:30:12.827Z,925.99
2019-03-09T12:31:12.868Z,926.00
2019-03-09T12:32:12.754Z,925.97
2019-03-09T12:33:12.751Z,926.04
2019-03-09T12:34:12.736Z,925.95
2019-03-09T12:35:12.721Z,925.99
2019-03-09T12:36:12.719Z,925.98
2019-03-09T12:37:12.960Z,925.98
2019-03-09T12:38:12.698Z,926.00
2019-03-09T12:39:12.695Z,925.99
2019-03-09T12:40:12.684Z,925.96
2019-03-09T12:41:12.673Z,925.93
2019-03-09T12:42:12.660Z,925.98
2019-03-09T12:43:12.746Z,925.99
2019-03-09T12:44:12.638Z,925.95
2019-03-09T12:45:12.628Z,926.00
2019-03-09T12:46:12.613Z,925.96
2019-03-09T12:47:12.603Z,926.03
2019-03-09T12:48:12.598Z,926.00
2019-03-09T12:49:12.681Z,925.99
2019-03-09T12:50:12.578Z,926.03
2019-03-09T12:51:12.564Z,926.00
2019-03-09T12:52:12.550Z,926.03
2019-03-09T12:53:14.168Z,926.04
2019-03-09T12:54:12.533Z,926.02
2019-03-09T12:55:12.918Z,925.99
2019-03-09T12:56:12.515Z,926.03
2019-03-09T12:57:12.497Z,925.98
2019-03-09T12:58:12.518Z,925.95
2019-03-09T12:59:12.488Z,925.90
2019-03-09T13:00:12.468Z,925.90
2019-03-09T13:01:12.557Z,925.93
2019-03-09T13:02:12.449Z,925.94
2019-03-09T13:03:12.440Z,925.91
2019-03-09T13:04:12.417Z,925.90
2019-03-09T13:05:12.414Z,925.93
2019-03-09T13:06:12.397Z,925.92
2019-03-09T13:07:12.491Z,925.91
2019-03-09T13:08:12.385Z,925.90
2019-03-09T13:09:12.376Z,925.88
2019-03-09T13:10:12.358Z,925.97
2019-03-09T13:11:12.360Z,925.93
2019-03-09T13:12:12.342Z,925.94
2019-03-09T13:13:12.574Z,925.88
2019-03-09T13:14:12.327Z,925.87
2019-03-09T13:15:12.303Z,925.87
2019-03-09T13:16:12.301Z,925.86
2019-03-09T13:17:12.290Z,925.80
2019-03-09T13:18:12.281Z,925.82
2019-03-09T13:19:12.418Z,925.82
2019-03-09T13:20:12.257Z,925.81
2019-03-09T13:21:12.236Z,925.79
2019-03-09T13:22:12.224Z,925.75
2019-03-09T13:23:12.220Z,925.76
2019-03-09T13:24:12.206Z,925.75
2019-03-09T13:25:12.305Z,925.78
2019-03-09T13:26:12.187Z,925.79
2019-03-09T13:27:12.184Z,925.76
2019-03-09T13:28:12.166Z,925.77
2019-03-09T13:29:12.154Z,925.72
2019-03-09T13:30:12.153Z,925.74
2019-03-09T13:31:12.377Z,925.75
2019-03-09T13:32:12.116Z,925.76
2019-03-09T13:33:12.122Z,925.77
2019-03-09T13:34:12.118Z,925.72
2019-03-09T13:35:12.108Z,925.79
2019-03-09T13:36:12.087Z,925.79
2019-03-09T13:37:12.164Z,925.82
2019-03-09T13:38:12.062Z,925.79
2019-03-09T13:39:12.050Z,925.76
2019-03-09T13:40:12.067Z,925.80
2019-03-09T13:41:12.042Z,925.75
2019-03-09T13:42:12.017Z,925.74
2019-03-09T13:43:12.116Z,925.75
2019-03-09T13:44:11.997Z,925.71
2019-03-09T13:45:11.997Z,925.72
2019-03-09T13:46:11.972Z,925.73
2019-03-09T13:47:11.970Z,925.71
2019-03-09T13:48:11.955Z,925.75
2019-03-09T13:49:12.188Z,925.80
2019-03-09T13:50:11.930Z,925.77
2019-03-09T13:51:11.921Z,925.77
2019-03-09T13:52:11.907Z,925.79
2019-03-09T13:53:11.897Z,925.76
2019-03-09T13:54:11.891Z,925.78
2019-03-09T13:55:11.975Z,925.79
2019-03-09T13:56:11.869Z,925.76
2019-03-09T13:57:11.860Z,925.80
2019-03-09T13:58:11.845Z,925.83
2019-03-09T13:59:11.834Z,925.80
2019-03-09T14:00:11.822Z,925.78
2019-03-09T14:01:11.912Z,925.81